Terminal Aerodrome Forecast
Issued by NWS

Home | Current Version | Previous Version | Text Only | Print | Product List | Glossary On
Versions: 1 2 3 4 5 6 7 8 9 10 11 12 13 14 15 16
000
FTUS45 KRIW 071123
TAFLND
TAF
KLND 071123Z 0712/0812 VRB06KT 4SM -SN SCT020 OVC028
      TEMPO 0712/0714 2SM -SN OVC020
     FM071500 VRB05KT P6SM OVC030
     FM072000 VRB06KT P6SM SCT030 BKN060
     FM080100 VRB05KT P6SM SKC=

USA.gov is the U.S. government's official web portal to all federal, state and local government web resources and services.